This is the latest recevied weather packets stored in our database for station/object N5LSN. If no packets are shown the sender has not sent any weather packets the latest 1 day(s).
| Time | Temp. | Humidity | Pressure | Rain* | Wind** | Luminosity | Snow |
|---|---|---|---|---|---|---|---|
| 1778115511 | 11.11° C | 97% | 1015.1 hPa | 0 mm | - | 2 W/m² | - |
| 1778115208 | 11.11° C | 97% | 1015.4 hPa | 0 mm | - | 2 W/m² | - |
| 1778114905 | 11.11° C | 97% | 1015.8 hPa | 0 mm | - | 3 W/m² | - |
| 1778114602 | 11.11° C | 97% | 1015.2 hPa | 0 mm | - | 5 W/m² | - |
| 1778114299 | 11.11° C | 97% | 1014.8 hPa | 0 mm | - | 6 W/m² | - |
| 1778113994 | 11.11° C | 98% | 1014.9 hPa | 0 mm | - | 10 W/m² | - |
| 1778113386 | 10.56° C | 98% | 1015 hPa | 0 mm | - | 17 W/m² | - |
| 1778111262 | 11.11° C | 97% | 1016.3 hPa | 0 mm | - | 22 W/m² | - |
| 1778110657 | 11.11° C | 97% | 1016.5 hPa | 0 mm | - | 23 W/m² | - |
| 1778110050 | 11.11° C | 98% | 1015.5 hPa | 0.51 mm | - | 42 W/m² | - |
| 1778108534 | 11.11° C | 97% | 1015.7 hPa | 0 mm | - | 25 W/m² | - |
| 1778104893 | 11.11° C | 94% | 1015 hPa | 0.51 mm | - | 57 W/m² | - |
| 1778104590 | 11.67° C | 93% | 1014.8 hPa | 0.51 mm | - | 65 W/m² | - |
| 1778103680 | 11.67° C | 92% | 1015.3 hPa | 0 mm | - | 104 W/m² | - |
| 1778103075 | 11.67° C | 92% | 1015 hPa | 0 mm | - | 123 W/m² | - |
| 1778101860 | 11.11° C | 94% | 1014.5 hPa | 0 mm | - | 154 W/m² | - |
| 1778100950 | 11.11° C | 95% | 1015.1 hPa | 0 mm | - | 78 W/m² | - |
| 1778099739 | 11.11° C | 95% | 1014.3 hPa | 0 mm | - | 242 W/m² | - |
| 1778099435 | 11.11° C | 96% | 1014.4 hPa | 0 mm | - | 259 W/m² | - |
| 1778097919 | 10.56° C | 99% | 1014.7 hPa | 0 mm | - | 291 W/m² | - |
| 1778097313 | 10.56° C | 99% | 1015.2 hPa | 0 mm | - | 250 W/m² | - |
| 1778096403 | 10° C | 99% | 1016 hPa | 0 mm | - | 139 W/m² | - |
| 1778095190 | 10° C | 99% | 1016.9 hPa | 2.29 mm | - | 76 W/m² | - |
| 1778094887 | 10° C | 99% | 1016.6 hPa | 2.29 mm | - | 89 W/m² | - |
| 1778091553 | 9.44° C | 99% | 1017.4 hPa | 0 mm | - | 94 W/m² | - |
* Rain latest hour (hover to see other rain measurements)
** Current wind speed in m/s (hover to see current wind gust speed)